sensor_id;sensor_type;location;lat;lon;timestamp;temperature;humidity
44817;DHT22;30529;53.570;9.964;2022-11-15T00:00:46;6.90;99.90
44817;DHT22;30529;53.570;9.964;2022-11-15T00:03:14;6.90;99.90
44817;DHT22;30529;53.570;9.964;2022-11-15T00:05:41;6.90;99.90
44817;DHT22;30529;53.570;9.964;2022-11-15T00:08:08;6.90;99.90
44817;DHT22;30529;53.570;9.964;2022-11-15T00:10:34;6.80;99.90
44817;DHT22;30529;53.570;9.964;2022-11-15T00:13:03;6.80;99.90
44817;DHT22;30529;53.570;9.964;2022-11-15T00:15:29;6.80;99.90
44817;DHT22;30529;53.570;9.964;2022-11-15T00:17:56;6.80;99.90
44817;DHT22;30529;53.570;9.964;2022-11-15T00:20:22;6.80;99.90
44817;DHT22;30529;53.570;9.964;2022-11-15T00:22:48;6.80;99.90
44817;DHT22;30529;53.570;9.964;2022-11-15T00:25:14;6.90;99.90
44817;DHT22;30529;53.570;9.964;2022-11-15T00:27:40;7.10;99.90
44817;DHT22;30529;53.570;9.964;2022-11-15T00:30:07;7.20;99.90
44817;DHT22;30529;53.570;9.964;2022-11-15T00:32:33;7.30;99.90
44817;DHT22;30529;53.570;9.964;2022-11-15T00:34:59;7.40;99.90
44817;DHT22;30529;53.570;9.964;2022-11-15T00:37:25;7.50;99.90
44817;DHT22;30529;53.570;9.964;2022-11-15T00:39:51;7.50;99.90
44817;DHT22;30529;53.570;9.964;2022-11-15T00:42:18;7.50;99.90
44817;DHT22;30529;53.570;9.964;2022-11-15T00:44:44;7.40;99.90
44817;DHT22;30529;53.570;9.964;2022-11-15T00:47:10;7.40;99.90
44817;DHT22;30529;53.570;9.964;2022-11-15T00:49:36;7.40;99.90
44817;DHT22;30529;53.570;9.964;2022-11-15T00:52:02;7.40;99.90
44817;DHT22;30529;53.570;9.964;2022-11-15T00:54:28;7.40;99.90
44817;DHT22;30529;53.570;9.964;2022-11-15T00:56:55;7.40;99.90
44817;DHT22;30529;53.570;9.964;2022-11-15T00:59:21;7.40;99.90
44817;DHT22;30529;53.570;9.964;2022-11-15T01:01:47;7.50;99.90
44817;DHT22;30529;53.570;9.964;2022-11-15T01:04:13;7.50;99.90
44817;DHT22;30529;53.570;9.964;2022-11-15T01:06:39;7.60;99.90
44817;DHT22;30529;53.570;9.964;2022-11-15T01:09:06;7.60;99.90
44817;DHT22;30529;53.570;9.964;2022-11-15T01:11:32;7.50;99.90
44817;DHT22;30529;53.570;9.964;2022-11-15T01:13:58;7.50;99.90
44817;DHT22;30529;53.570;9.964;2022-11-15T01:16:24;7.40;99.90
44817;DHT22;30529;53.570;9.964;2022-11-15T01:18:50;7.20;99.90
44817;DHT22;30529;53.570;9.964;2022-11-15T01:21:18;7.10;99.90
44817;DHT22;30529;53.570;9.964;2022-11-15T01:23:44;7.10;99.90
44817;DHT22;30529;53.570;9.964;2022-11-15T01:26:13;7.00;99.90
44817;DHT22;30529;53.570;9.964;2022-11-15T01:28:41;7.00;99.90
44817;DHT22;30529;53.570;9.964;2022-11-15T01:31:13;6.90;99.90
44817;DHT22;30529;53.570;9.964;2022-11-15T01:33:40;6.80;99.90
44817;DHT22;30529;53.570;9.964;2022-11-15T01:36:08;6.80;99.90
44817;DHT22;30529;53.570;9.964;2022-11-15T01:38:35;6.80;99.90
44817;DHT22;30529;53.570;9.964;2022-11-15T01:41:02;6.80;99.90
44817;DHT22;30529;53.570;9.964;2022-11-15T01:43:32;6.70;99.90
44817;DHT22;30529;53.570;9.964;2022-11-15T01:46:22;6.70;99.90
44817;DHT22;30529;53.570;9.964;2022-11-15T01:48:50;6.70;99.90
44817;DHT22;30529;53.570;9.964;2022-11-15T01:51:19;6.60;99.90
44817;DHT22;30529;53.570;9.964;2022-11-15T01:53:49;6.60;99.90
44817;DHT22;30529;53.570;9.964;2022-11-15T01:56:20;6.60;99.90
44817;DHT22;30529;53.570;9.964;2022-11-15T01:58:49;6.60;99.90
44817;DHT22;30529;53.570;9.964;2022-11-15T02:01:17;6.50;99.90
44817;DHT22;30529;53.570;9.964;2022-11-15T02:03:55;6.50;99.90
44817;DHT22;30529;53.570;9.964;2022-11-15T02:06:22;6.50;99.90
44817;DHT22;30529;53.570;9.964;2022-11-15T02:08:49;6.50;99.90
44817;DHT22;30529;53.570;9.964;2022-11-15T02:11:16;6.50;99.90
44817;DHT22;30529;53.570;9.964;2022-11-15T02:13:42;6.50;99.90
44817;DHT22;30529;53.570;9.964;2022-11-15T02:25:15;6.50;99.90
44817;DHT22;30529;53.570;9.964;2022-11-15T02:30:44;6.50;99.90
44817;DHT22;30529;53.570;9.964;2022-11-15T02:35:52;6.40;99.90
44817;DHT22;30529;53.570;9.964;2022-11-15T02:41:01;6.40;99.90
44817;DHT22;30529;53.570;9.964;2022-11-15T02:43:36;6.30;99.90
44817;DHT22;30529;53.570;9.964;2022-11-15T02:49:33;6.30;99.90
44817;DHT22;30529;53.570;9.964;2022-11-15T02:51:59;6.30;99.90
44817;DHT22;30529;53.570;9.964;2022-11-15T02:54:32;6.30;99.90
44817;DHT22;30529;53.570;9.964;2022-11-15T02:57:07;6.30;99.90
44817;DHT22;30529;53.570;9.964;2022-11-15T02:59:43;6.30;99.90
44817;DHT22;30529;53.570;9.964;2022-11-15T03:05:00;6.30;99.90
44817;DHT22;30529;53.570;9.964;2022-11-15T03:07:36;6.30;99.90
44817;DHT22;30529;53.570;9.964;2022-11-15T03:10:16;6.20;99.90
44817;DHT22;30529;53.570;9.964;2022-11-15T03:12:55;6.20;99.90
44817;DHT22;30529;53.570;9.964;2022-11-15T03:15:29;6.20;99.90
44817;DHT22;30529;53.570;9.964;2022-11-15T03:18:23;6.20;99.90
44817;DHT22;30529;53.570;9.964;2022-11-15T03:20:54;6.20;99.90
44817;DHT22;30529;53.570;9.964;2022-11-15T03:23:22;6.20;99.90
44817;DHT22;30529;53.570;9.964;2022-11-15T03:25:50;6.20;99.90
44817;DHT22;30529;53.570;9.964;2022-11-15T03:28:23;6.30;99.90
44817;DHT22;30529;53.570;9.964;2022-11-15T03:30:52;6.30;99.90
44817;DHT22;30529;53.570;9.964;2022-11-15T03:33:21;6.20;99.90
44817;DHT22;30529;53.570;9.964;2022-11-15T03:35:48;6.20;99.90
44817;DHT22;30529;53.570;9.964;2022-11-15T03:38:22;6.20;99.90
44817;DHT22;30529;53.570;9.964;2022-11-15T03:40:58;6.30;99.90
44817;DHT22;30529;53.570;9.964;2022-11-15T03:43:52;6.30;99.90
44817;DHT22;30529;53.570;9.964;2022-11-15T03:46:33;6.30;99.90
44817;DHT22;30529;53.570;9.964;2022-11-15T03:49:10;6.30;99.90
44817;DHT22;30529;53.570;9.964;2022-11-15T03:51:37;6.40;99.90
44817;DHT22;30529;53.570;9.964;2022-11-15T03:54:04;6.30;99.90
44817;DHT22;30529;53.570;9.964;2022-11-15T03:56:30;6.30;99.90
44817;DHT22;30529;53.570;9.964;2022-11-15T03:58:56;6.40;99.90
44817;DHT22;30529;53.570;9.964;2022-11-15T04:01:23;6.40;99.90
44817;DHT22;30529;53.570;9.964;2022-11-15T04:03:49;6.40;99.90
44817;DHT22;30529;53.570;9.964;2022-11-15T04:06:15;6.40;99.90
44817;DHT22;30529;53.570;9.964;2022-11-15T04:08:41;6.40;99.90
44817;DHT22;30529;53.570;9.964;2022-11-15T04:11:07;6.50;99.90
44817;DHT22;30529;53.570;9.964;2022-11-15T04:13:33;6.60;99.90
44817;DHT22;30529;53.570;9.964;2022-11-15T04:15:59;6.70;99.90
44817;DHT22;30529;53.570;9.964;2022-11-15T04:18:29;6.70;99.90
44817;DHT22;30529;53.570;9.964;2022-11-15T04:20:55;6.70;99.90
44817;DHT22;30529;53.570;9.964;2022-11-15T04:23:40;6.80;99.90
44817;DHT22;30529;53.570;9.964;2022-11-15T04:26:21;6.80;99.90
44817;DHT22;30529;53.570;9.964;2022-11-15T04:28:48;6.90;99.90
44817;DHT22;30529;53.570;9.964;2022-11-15T04:31:33;7.00;99.90
44817;DHT22;30529;53.570;9.964;2022-11-15T04:33:59;7.00;99.90
44817;DHT22;30529;53.570;9.964;2022-11-15T04:36:25;7.00;99.90
44817;DHT22;30529;53.570;9.964;2022-11-15T04:39:10;7.10;99.90
44817;DHT22;30529;53.570;9.964;2022-11-15T04:41:36;7.10;99.90
44817;DHT22;30529;53.570;9.964;2022-11-15T04:44:02;7.20;99.90
44817;DHT22;30529;53.570;9.964;2022-11-15T04:46:28;7.30;99.90
44817;DHT22;30529;53.570;9.964;2022-11-15T04:48:54;7.40;99.90
44817;DHT22;30529;53.570;9.964;2022-11-15T04:51:20;7.50;99.90
44817;DHT22;30529;53.570;9.964;2022-11-15T04:53:46;7.60;99.90
44817;DHT22;30529;53.570;9.964;2022-11-15T04:56:13;7.70;99.90
44817;DHT22;30529;53.570;9.964;2022-11-15T04:58:39;7.80;99.90
44817;DHT22;30529;53.570;9.964;2022-11-15T05:01:12;7.80;99.90
44817;DHT22;30529;53.570;9.964;2022-11-15T05:03:41;7.80;99.90
44817;DHT22;30529;53.570;9.964;2022-11-15T05:06:26;7.90;99.90
44817;DHT22;30529;53.570;9.964;2022-11-15T05:08:52;7.90;99.90
44817;DHT22;30529;53.570;9.964;2022-11-15T05:11:18;7.90;99.90
44817;DHT22;30529;53.570;9.964;2022-11-15T05:13:44;7.90;99.90
44817;DHT22;30529;53.570;9.964;2022-11-15T05:16:10;7.90;99.90
44817;DHT22;30529;53.570;9.964;2022-11-15T05:18:37;8.00;99.90
44817;DHT22;30529;53.570;9.964;2022-11-15T05:21:08;8.00;99.90
44817;DHT22;30529;53.570;9.964;2022-11-15T05:23:34;8.00;99.90
44817;DHT22;30529;53.570;9.964;2022-11-15T05:26:02;7.90;99.90
44817;DHT22;30529;53.570;9.964;2022-11-15T05:28:28;7.90;99.90
44817;DHT22;30529;53.570;9.964;2022-11-15T05:31:04;7.90;99.90
44817;DHT22;30529;53.570;9.964;2022-11-15T05:33:31;7.90;99.90
44817;DHT22;30529;53.570;9.964;2022-11-15T05:36:05;8.00;99.90
44817;DHT22;30529;53.570;9.964;2022-11-15T05:38:32;8.00;99.90
44817;DHT22;30529;53.570;9.964;2022-11-15T05:41:00;8.00;99.90
44817;DHT22;30529;53.570;9.964;2022-11-15T05:43:27;8.00;99.90
44817;DHT22;30529;53.570;9.964;2022-11-15T05:45:54;8.10;99.90
44817;DHT22;30529;53.570;9.964;2022-11-15T05:48:20;8.10;99.90
44817;DHT22;30529;53.570;9.964;2022-11-15T05:50:47;8.10;99.90
44817;DHT22;30529;53.570;9.964;2022-11-15T05:53:16;8.20;99.90
44817;DHT22;30529;53.570;9.964;2022-11-15T05:55:43;8.20;99.90
44817;DHT22;30529;53.570;9.964;2022-11-15T05:58:10;8.20;99.90
44817;DHT22;30529;53.570;9.964;2022-11-15T06:00:36;8.30;99.90
44817;DHT22;30529;53.570;9.964;2022-11-15T06:03:02;8.20;99.90
44817;DHT22;30529;53.570;9.964;2022-11-15T06:05:28;8.30;99.90
44817;DHT22;30529;53.570;9.964;2022-11-15T06:07:58;8.30;99.90
44817;DHT22;30529;53.570;9.964;2022-11-15T06:10:27;8.30;99.90
44817;DHT22;30529;53.570;9.964;2022-11-15T06:13:01;8.40;99.90
44817;DHT22;30529;53.570;9.964;2022-11-15T06:15:27;8.40;99.90
44817;DHT22;30529;53.570;9.964;2022-11-15T06:17:57;8.50;99.90
44817;DHT22;30529;53.570;9.964;2022-11-15T06:20:27;8.50;99.90
44817;DHT22;30529;53.570;9.964;2022-11-15T06:22:58;8.50;99.90
44817;DHT22;30529;53.570;9.964;2022-11-15T06:25:25;8.50;99.90
44817;DHT22;30529;53.570;9.964;2022-11-15T06:27:52;8.60;99.90
44817;DHT22;30529;53.570;9.964;2022-11-15T06:30:19;8.60;99.90
44817;DHT22;30529;53.570;9.964;2022-11-15T06:32:46;8.60;99.90
44817;DHT22;30529;53.570;9.964;2022-11-15T06:35:13;8.60;99.90
44817;DHT22;30529;53.570;9.964;2022-11-15T06:37:39;8.60;99.90
44817;DHT22;30529;53.570;9.964;2022-11-15T06:40:08;8.60;99.90
44817;DHT22;30529;53.570;9.964;2022-11-15T06:42:34;8.60;99.90
44817;DHT22;30529;53.570;9.964;2022-11-15T06:45:00;8.60;99.90
44817;DHT22;30529;53.570;9.964;2022-11-15T06:47:27;8.70;99.90
44817;DHT22;30529;53.570;9.964;2022-11-15T06:49:53;8.60;99.90
44817;DHT22;30529;53.570;9.964;2022-11-15T06:52:19;8.70;99.90
44817;DHT22;30529;53.570;9.964;2022-11-15T06:54:47;8.60;99.90
44817;DHT22;30529;53.570;9.964;2022-11-15T06:57:13;8.70;99.90
44817;DHT22;30529;53.570;9.964;2022-11-15T06:59:39;8.70;99.90
44817;DHT22;30529;53.570;9.964;2022-11-15T07:02:05;8.70;99.90
44817;DHT22;30529;53.570;9.964;2022-11-15T07:04:31;8.70;99.90
44817;DHT22;30529;53.570;9.964;2022-11-15T07:06:57;8.70;99.90
44817;DHT22;30529;53.570;9.964;2022-11-15T07:09:24;8.70;99.90
44817;DHT22;30529;53.570;9.964;2022-11-15T07:11:50;8.70;99.90
44817;DHT22;30529;53.570;9.964;2022-11-15T07:14:16;8.70;99.90
44817;DHT22;30529;53.570;9.964;2022-11-15T07:16:42;8.80;99.90
44817;DHT22;30529;53.570;9.964;2022-11-15T07:19:09;8.80;99.90
44817;DHT22;30529;53.570;9.964;2022-11-15T07:21:35;8.80;99.90
44817;DHT22;30529;53.570;9.964;2022-11-15T07:24:02;8.90;99.90
44817;DHT22;30529;53.570;9.964;2022-11-15T07:26:29;8.90;99.90
44817;DHT22;30529;53.570;9.964;2022-11-15T07:28:55;8.90;99.90
44817;DHT22;30529;53.570;9.964;2022-11-15T07:31:21;8.90;99.90
44817;DHT22;30529;53.570;9.964;2022-11-15T07:33:48;8.90;99.90
44817;DHT22;30529;53.570;9.964;2022-11-15T07:36:14;8.90;99.90
44817;DHT22;30529;53.570;9.964;2022-11-15T07:38:40;9.00;99.90
44817;DHT22;30529;53.570;9.964;2022-11-15T07:41:06;8.90;99.90
44817;DHT22;30529;53.570;9.964;2022-11-15T07:43:33;9.00;99.90
44817;DHT22;30529;53.570;9.964;2022-11-15T07:46:08;9.00;99.90
44817;DHT22;30529;53.570;9.964;2022-11-15T07:48:36;9.00;99.90
44817;DHT22;30529;53.570;9.964;2022-11-15T07:51:02;9.00;99.90
44817;DHT22;30529;53.570;9.964;2022-11-15T07:53:28;9.00;99.90
44817;DHT22;30529;53.570;9.964;2022-11-15T07:55:55;8.90;99.90
44817;DHT22;30529;53.570;9.964;2022-11-15T07:58:21;8.90;99.90
44817;DHT22;30529;53.570;9.964;2022-11-15T08:00:47;8.90;99.90
44817;DHT22;30529;53.570;9.964;2022-11-15T08:03:15;9.00;99.90
44817;DHT22;30529;53.570;9.964;2022-11-15T08:05:43;9.00;99.90
44817;DHT22;30529;53.570;9.964;2022-11-15T08:08:10;9.00;99.90
44817;DHT22;30529;53.570;9.964;2022-11-15T08:10:37;9.00;99.90
44817;DHT22;30529;53.570;9.964;2022-11-15T08:13:06;9.00;99.90
44817;DHT22;30529;53.570;9.964;2022-11-15T08:15:33;9.10;99.90
44817;DHT22;30529;53.570;9.964;2022-11-15T08:18:05;9.00;99.90
44817;DHT22;30529;53.570;9.964;2022-11-15T08:20:32;8.90;99.90
44817;DHT22;30529;53.570;9.964;2022-11-15T08:23:00;8.90;99.90
44817;DHT22;30529;53.570;9.964;2022-11-15T08:25:28;8.90;99.90
44817;DHT22;30529;53.570;9.964;2022-11-15T08:27:56;9.00;99.90
44817;DHT22;30529;53.570;9.964;2022-11-15T08:30:23;9.00;99.90
44817;DHT22;30529;53.570;9.964;2022-11-15T08:32:51;9.00;99.90
44817;DHT22;30529;53.570;9.964;2022-11-15T08:35:19;9.00;99.90
44817;DHT22;30529;53.570;9.964;2022-11-15T08:37:46;9.10;99.90
44817;DHT22;30529;53.570;9.964;2022-11-15T08:40:13;9.20;99.90
44817;DHT22;30529;53.570;9.964;2022-11-15T08:42:40;9.20;99.90
44817;DHT22;30529;53.570;9.964;2022-11-15T08:45:07;9.30;99.90
44817;DHT22;30529;53.570;9.964;2022-11-15T08:47:34;9.40;99.90
44817;DHT22;30529;53.570;9.964;2022-11-15T08:50:00;9.40;99.90
44817;DHT22;30529;53.570;9.964;2022-11-15T08:52:26;9.40;99.90
44817;DHT22;30529;53.570;9.964;2022-11-15T08:54:52;9.30;99.90
44817;DHT22;30529;53.570;9.964;2022-11-15T08:57:19;9.40;99.90
44817;DHT22;30529;53.570;9.964;2022-11-15T08:59:45;9.30;99.90
44817;DHT22;30529;53.570;9.964;2022-11-15T09:02:14;9.30;99.90
44817;DHT22;30529;53.570;9.964;2022-11-15T09:04:41;9.30;99.90
44817;DHT22;30529;53.570;9.964;2022-11-15T09:07:09;9.30;99.90
44817;DHT22;30529;53.570;9.964;2022-11-15T09:09:35;9.40;99.90
44817;DHT22;30529;53.570;9.964;2022-11-15T09:12:02;9.30;99.90
44817;DHT22;30529;53.570;9.964;2022-11-15T09:14:29;9.40;99.90
44817;DHT22;30529;53.570;9.964;2022-11-15T09:16:55;9.40;99.90
44817;DHT22;30529;53.570;9.964;2022-11-15T09:19:22;9.50;99.90
44817;DHT22;30529;53.570;9.964;2022-11-15T09:21:48;9.60;99.90
44817;DHT22;30529;53.570;9.964;2022-11-15T09:24:14;9.70;99.90
44817;DHT22;30529;53.570;9.964;2022-11-15T09:26:41;9.70;99.90
44817;DHT22;30529;53.570;9.964;2022-11-15T09:29:07;9.80;99.90
44817;DHT22;30529;53.570;9.964;2022-11-15T09:31:33;9.80;99.90
44817;DHT22;30529;53.570;9.964;2022-11-15T09:33:59;9.90;99.90
44817;DHT22;30529;53.570;9.964;2022-11-15T09:36:25;10.00;99.90
44817;DHT22;30529;53.570;9.964;2022-11-15T09:38:51;10.00;99.90
44817;DHT22;30529;53.570;9.964;2022-11-15T09:48:59;10.40;99.90
44817;DHT22;30529;53.570;9.964;2022-11-15T09:51:39;10.40;99.90
44817;DHT22;30529;53.570;9.964;2022-11-15T09:54:38;10.40;99.90
44817;DHT22;30529;53.570;9.964;2022-11-15T09:57:14;10.40;99.90
44817;DHT22;30529;53.570;9.964;2022-11-15T10:05:02;10.40;99.90
44817;DHT22;30529;53.570;9.964;2022-11-15T10:07:37;10.40;99.90
44817;DHT22;30529;53.570;9.964;2022-11-15T10:12:48;10.50;99.90
44817;DHT22;30529;53.570;9.964;2022-11-15T10:15:16;10.60;99.90
44817;DHT22;30529;53.570;9.964;2022-11-15T10:20:28;10.60;99.90
44817;DHT22;30529;53.570;9.964;2022-11-15T10:23:17;10.60;99.90
44817;DHT22;30529;53.570;9.964;2022-11-15T10:25:44;10.70;99.90
44817;DHT22;30529;53.570;9.964;2022-11-15T10:28:17;10.70;99.90
44817;DHT22;30529;53.570;9.964;2022-11-15T10:30:51;10.70;99.90
44817;DHT22;30529;53.570;9.964;2022-11-15T10:33:31;10.70;99.90
44817;DHT22;30529;53.570;9.964;2022-11-15T10:46:34;10.70;99.90
44817;DHT22;30529;53.570;9.964;2022-11-15T10:49:17;10.70;99.90
44817;DHT22;30529;53.570;9.964;2022-11-15T10:51:47;10.70;99.90
44817;DHT22;30529;53.570;9.964;2022-11-15T10:54:23;10.70;99.90
44817;DHT22;30529;53.570;9.964;2022-11-15T10:56:52;10.70;99.90
44817;DHT22;30529;53.570;9.964;2022-11-15T10:59:33;10.70;99.90
44817;DHT22;30529;53.570;9.964;2022-11-15T11:02:01;10.80;99.90
44817;DHT22;30529;53.570;9.964;2022-11-15T11:04:27;10.80;99.90
44817;DHT22;30529;53.570;9.964;2022-11-15T11:06:55;10.90;99.90
44817;DHT22;30529;53.570;9.964;2022-11-15T11:09:30;11.00;99.90
44817;DHT22;30529;53.570;9.964;2022-11-15T11:11:57;11.00;99.90
44817;DHT22;30529;53.570;9.964;2022-11-15T11:14:34;11.10;99.90
44817;DHT22;30529;53.570;9.964;2022-11-15T11:24:52;11.10;99.90
44817;DHT22;30529;53.570;9.964;2022-11-15T11:30:23;11.20;99.90
44817;DHT22;30529;53.570;9.964;2022-11-15T11:46:55;11.40;99.90
44817;DHT22;30529;53.570;9.964;2022-11-15T11:57:48;11.30;99.90
44817;DHT22;30529;53.570;9.964;2022-11-15T12:00:23;11.30;99.90
44817;DHT22;30529;53.570;9.964;2022-11-15T12:05:44;11.30;99.90
44817;DHT22;30529;53.570;9.964;2022-11-15T12:08:45;11.30;99.90
44817;DHT22;30529;53.570;9.964;2022-11-15T12:14:54;11.30;99.90
44817;DHT22;30529;53.570;9.964;2022-11-15T12:17:26;11.30;99.90
44817;DHT22;30529;53.570;9.964;2022-11-15T12:19:56;11.40;99.90
44817;DHT22;30529;53.570;9.964;2022-11-15T12:25:04;11.30;99.90
44817;DHT22;30529;53.570;9.964;2022-11-15T12:27:36;11.40;99.90
44817;DHT22;30529;53.570;9.964;2022-11-15T12:30:18;11.40;99.90
44817;DHT22;30529;53.570;9.964;2022-11-15T12:37:55;11.40;99.90
44817;DHT22;30529;53.570;9.964;2022-11-15T12:40:39;11.40;99.90
44817;DHT22;30529;53.570;9.964;2022-11-15T12:46:04;11.40;99.90
44817;DHT22;30529;53.570;9.964;2022-11-15T12:51:00;11.60;99.90
44817;DHT22;30529;53.570;9.964;2022-11-15T12:53:28;11.50;99.90
44817;DHT22;30529;53.570;9.964;2022-11-15T12:58:57;11.40;99.90
44817;DHT22;30529;53.570;9.964;2022-11-15T13:07:05;11.50;99.90
44817;DHT22;30529;53.570;9.964;2022-11-15T13:12:09;11.50;99.90
44817;DHT22;30529;53.570;9.964;2022-11-15T13:14:54;11.60;99.90
44817;DHT22;30529;53.570;9.964;2022-11-15T13:30:54;11.60;99.90
44817;DHT22;30529;53.570;9.964;2022-11-15T13:33:36;11.70;99.90
44817;DHT22;30529;53.570;9.964;2022-11-15T13:38:41;11.70;99.90
44817;DHT22;30529;53.570;9.964;2022-11-15T13:41:32;11.70;99.90
44817;DHT22;30529;53.570;9.964;2022-11-15T13:44:02;11.70;99.90
44817;DHT22;30529;53.570;9.964;2022-11-15T13:49:02;11.70;99.90
44817;DHT22;30529;53.570;9.964;2022-11-15T13:51:48;11.70;99.90
44817;DHT22;30529;53.570;9.964;2022-11-15T13:56:45;11.70;99.90
44817;DHT22;30529;53.570;9.964;2022-11-15T14:01:50;11.70;99.90
44817;DHT22;30529;53.570;9.964;2022-11-15T14:04:21;11.70;99.90
44817;DHT22;30529;53.570;9.964;2022-11-15T14:06:50;11.70;99.90
44817;DHT22;30529;53.570;9.964;2022-11-15T14:09:43;11.80;99.90
44817;DHT22;30529;53.570;9.964;2022-11-15T14:12:35;11.70;99.90
44817;DHT22;30529;53.570;9.964;2022-11-15T14:15:31;11.70;99.90
44817;DHT22;30529;53.570;9.964;2022-11-15T14:17:58;11.70;99.90
44817;DHT22;30529;53.570;9.964;2022-11-15T14:25:37;11.60;99.90
44817;DHT22;30529;53.570;9.964;2022-11-15T14:28:29;11.60;99.90
44817;DHT22;30529;53.570;9.964;2022-11-15T14:30:58;11.50;99.90
44817;DHT22;30529;53.570;9.964;2022-11-15T14:33:28;11.50;99.90
44817;DHT22;30529;53.570;9.964;2022-11-15T14:35:56;11.50;99.90
44817;DHT22;30529;53.570;9.964;2022-11-15T14:38:24;11.50;99.90
44817;DHT22;30529;53.570;9.964;2022-11-15T14:40:51;11.40;99.90
44817;DHT22;30529;53.570;9.964;2022-11-15T14:43:17;11.40;99.90
44817;DHT22;30529;53.570;9.964;2022-11-15T14:45:43;11.30;99.90
44817;DHT22;30529;53.570;9.964;2022-11-15T14:48:09;11.30;99.90
44817;DHT22;30529;53.570;9.964;2022-11-15T14:50:36;11.30;99.90
44817;DHT22;30529;53.570;9.964;2022-11-15T14:53:03;11.30;99.90
44817;DHT22;30529;53.570;9.964;2022-11-15T14:55:34;11.20;99.90
44817;DHT22;30529;53.570;9.964;2022-11-15T14:58:03;11.20;99.90
44817;DHT22;30529;53.570;9.964;2022-11-15T15:00:33;11.10;99.90
44817;DHT22;30529;53.570;9.964;2022-11-15T15:02:59;11.10;99.90
44817;DHT22;30529;53.570;9.964;2022-11-15T15:07:59;11.00;99.90
44817;DHT22;30529;53.570;9.964;2022-11-15T15:10:30;10.90;99.90
44817;DHT22;30529;53.570;9.964;2022-11-15T15:12:57;10.90;99.90
44817;DHT22;30529;53.570;9.964;2022-11-15T15:15:32;10.90;99.90
44817;DHT22;30529;53.570;9.964;2022-11-15T15:17:58;10.80;99.90
44817;DHT22;30529;53.570;9.964;2022-11-15T15:20:24;10.80;99.90
44817;DHT22;30529;53.570;9.964;2022-11-15T15:22:50;10.70;99.90
44817;DHT22;30529;53.570;9.964;2022-11-15T15:27:53;10.60;99.90
44817;DHT22;30529;53.570;9.964;2022-11-15T15:30:20;10.60;99.90
44817;DHT22;30529;53.570;9.964;2022-11-15T15:32:47;10.60;99.90
44817;DHT22;30529;53.570;9.964;2022-11-15T15:35:14;10.50;99.90
44817;DHT22;30529;53.570;9.964;2022-11-15T15:37:41;10.50;99.90
44817;DHT22;30529;53.570;9.964;2022-11-15T15:42:42;10.40;99.90
44817;DHT22;30529;53.570;9.964;2022-11-15T15:45:09;10.40;99.90
44817;DHT22;30529;53.570;9.964;2022-11-15T15:47:35;10.40;99.90
44817;DHT22;30529;53.570;9.964;2022-11-15T15:50:02;10.30;99.90
44817;DHT22;30529;53.570;9.964;2022-11-15T15:52:28;10.30;99.90
44817;DHT22;30529;53.570;9.964;2022-11-15T15:54:58;10.30;99.90
44817;DHT22;30529;53.570;9.964;2022-11-15T15:57:24;10.30;99.90
44817;DHT22;30529;53.570;9.964;2022-11-15T15:59:50;10.20;99.90
44817;DHT22;30529;53.570;9.964;2022-11-15T16:02:17;10.20;99.90
44817;DHT22;30529;53.570;9.964;2022-11-15T16:04:43;10.20;99.90
44817;DHT22;30529;53.570;9.964;2022-11-15T16:07:17;10.10;99.90
44817;DHT22;30529;53.570;9.964;2022-11-15T16:09:46;10.10;99.90
44817;DHT22;30529;53.570;9.964;2022-11-15T16:12:35;10.10;99.90
44817;DHT22;30529;53.570;9.964;2022-11-15T16:15:02;10.10;99.90
44817;DHT22;30529;53.570;9.964;2022-11-15T16:17:35;10.10;99.90
44817;DHT22;30529;53.570;9.964;2022-11-15T16:20:06;10.10;99.90
44817;DHT22;30529;53.570;9.964;2022-11-15T16:22:32;10.30;99.90
44817;DHT22;30529;53.570;9.964;2022-11-15T16:24:58;10.30;99.90
44817;DHT22;30529;53.570;9.964;2022-11-15T16:27:25;10.40;99.90
44817;DHT22;30529;53.570;9.964;2022-11-15T16:29:51;10.40;99.90
44817;DHT22;30529;53.570;9.964;2022-11-15T16:32:17;10.50;99.90
44817;DHT22;30529;53.570;9.964;2022-11-15T16:34:43;10.50;99.90
44817;DHT22;30529;53.570;9.964;2022-11-15T16:37:22;10.50;99.90
44817;DHT22;30529;53.570;9.964;2022-11-15T16:39:48;10.60;99.90
44817;DHT22;30529;53.570;9.964;2022-11-15T16:42:15;10.60;99.90
44817;DHT22;30529;53.570;9.964;2022-11-15T16:44:41;10.60;99.90
44817;DHT22;30529;53.570;9.964;2022-11-15T16:47:19;10.60;99.90
44817;DHT22;30529;53.570;9.964;2022-11-15T16:49:46;10.60;99.90
44817;DHT22;30529;53.570;9.964;2022-11-15T16:52:13;10.50;99.90
44817;DHT22;30529;53.570;9.964;2022-11-15T16:54:39;10.40;99.90
44817;DHT22;30529;53.570;9.964;2022-11-15T16:57:07;10.40;99.90
44817;DHT22;30529;53.570;9.964;2022-11-15T16:59:33;10.30;99.90
44817;DHT22;30529;53.570;9.964;2022-11-15T17:01:59;10.30;99.90
44817;DHT22;30529;53.570;9.964;2022-11-15T17:04:25;10.20;99.90
44817;DHT22;30529;53.570;9.964;2022-11-15T17:06:57;10.20;99.90
44817;DHT22;30529;53.570;9.964;2022-11-15T17:09:23;10.10;99.90
44817;DHT22;30529;53.570;9.964;2022-11-15T17:11:50;10.20;99.90
44817;DHT22;30529;53.570;9.964;2022-11-15T17:14:17;10.10;99.90
44817;DHT22;30529;53.570;9.964;2022-11-15T17:16:43;10.10;99.90
44817;DHT22;30529;53.570;9.964;2022-11-15T17:19:13;10.10;99.90
44817;DHT22;30529;53.570;9.964;2022-11-15T17:21:41;10.10;99.90
44817;DHT22;30529;53.570;9.964;2022-11-15T17:24:07;10.10;99.90
44817;DHT22;30529;53.570;9.964;2022-11-15T17:26:34;10.10;99.90
44817;DHT22;30529;53.570;9.964;2022-11-15T17:29:00;10.00;99.90
44817;DHT22;30529;53.570;9.964;2022-11-15T17:31:29;10.00;99.90
44817;DHT22;30529;53.570;9.964;2022-11-15T17:33:59;10.00;99.90
44817;DHT22;30529;53.570;9.964;2022-11-15T17:36:26;10.00;99.90
44817;DHT22;30529;53.570;9.964;2022-11-15T17:38:52;10.00;99.90
44817;DHT22;30529;53.570;9.964;2022-11-15T17:41:18;10.00;99.90
44817;DHT22;30529;53.570;9.964;2022-11-15T17:43:46;10.10;99.90
44817;DHT22;30529;53.570;9.964;2022-11-15T17:46:18;10.10;99.90
44817;DHT22;30529;53.570;9.964;2022-11-15T17:48:46;10.20;99.90
44817;DHT22;30529;53.570;9.964;2022-11-15T17:51:14;10.20;99.90
44817;DHT22;30529;53.570;9.964;2022-11-15T17:53:43;10.20;99.90
44817;DHT22;30529;53.570;9.964;2022-11-15T17:56:12;10.20;99.90
44817;DHT22;30529;53.570;9.964;2022-11-15T17:58:41;10.20;99.90
44817;DHT22;30529;53.570;9.964;2022-11-15T18:01:28;10.30;99.90
44817;DHT22;30529;53.570;9.964;2022-11-15T18:03:56;10.40;99.90
44817;DHT22;30529;53.570;9.964;2022-11-15T18:06:23;10.50;99.90
44817;DHT22;30529;53.570;9.964;2022-11-15T18:08:51;10.60;99.90
44817;DHT22;30529;53.570;9.964;2022-11-15T18:11:21;10.70;99.90
44817;DHT22;30529;53.570;9.964;2022-11-15T18:13:50;10.70;99.90
44817;DHT22;30529;53.570;9.964;2022-11-15T18:16:21;10.70;99.90
44817;DHT22;30529;53.570;9.964;2022-11-15T18:18:47;10.80;99.90
44817;DHT22;30529;53.570;9.964;2022-11-15T18:21:19;10.80;99.90
44817;DHT22;30529;53.570;9.964;2022-11-15T18:23:47;10.80;99.90
44817;DHT22;30529;53.570;9.964;2022-11-15T18:26:15;10.80;99.90